sensor_id;sensor_type;location;lat;lon;timestamp;temperature;humidity
2497;DHT22;1259;48.306;14.374;2022-11-15T00:00:44;8.50;99.90
2497;DHT22;1259;48.306;14.374;2022-11-15T00:03:13;8.40;99.90
2497;DHT22;1259;48.306;14.374;2022-11-15T00:05:42;8.40;99.90
2497;DHT22;1259;48.306;14.374;2022-11-15T00:08:09;8.30;99.90
2497;DHT22;1259;48.306;14.374;2022-11-15T00:10:36;8.30;99.90
2497;DHT22;1259;48.306;14.374;2022-11-15T00:13:05;8.30;99.90
2497;DHT22;1259;48.306;14.374;2022-11-15T00:15:35;8.30;99.90
2497;DHT22;1259;48.306;14.374;2022-11-15T00:18:03;8.30;99.90
2497;DHT22;1259;48.306;14.374;2022-11-15T00:20:31;8.20;99.90
2497;DHT22;1259;48.306;14.374;2022-11-15T00:22:59;8.20;99.90
2497;DHT22;1259;48.306;14.374;2022-11-15T00:25:26;8.20;99.90
2497;DHT22;1259;48.306;14.374;2022-11-15T00:27:55;8.30;99.90
2497;DHT22;1259;48.306;14.374;2022-11-15T00:30:23;8.30;99.90
2497;DHT22;1259;48.306;14.374;2022-11-15T00:32:50;8.20;99.90
2497;DHT22;1259;48.306;14.374;2022-11-15T00:35:17;8.20;99.90
2497;DHT22;1259;48.306;14.374;2022-11-15T00:37:44;8.30;99.90
2497;DHT22;1259;48.306;14.374;2022-11-15T00:40:14;8.20;99.90
2497;DHT22;1259;48.306;14.374;2022-11-15T00:42:41;8.20;99.90
2497;DHT22;1259;48.306;14.374;2022-11-15T00:45:09;8.10;99.90
2497;DHT22;1259;48.306;14.374;2022-11-15T00:47:36;8.10;99.90
2497;DHT22;1259;48.306;14.374;2022-11-15T00:50:04;8.10;99.90
2497;DHT22;1259;48.306;14.374;2022-11-15T00:52:31;8.00;99.90
2497;DHT22;1259;48.306;14.374;2022-11-15T00:54:58;7.80;99.90
2497;DHT22;1259;48.306;14.374;2022-11-15T00:57:26;7.70;99.90
2497;DHT22;1259;48.306;14.374;2022-11-15T00:59:53;7.80;99.90
2497;DHT22;1259;48.306;14.374;2022-11-15T01:02:20;7.80;99.90
2497;DHT22;1259;48.306;14.374;2022-11-15T01:04:47;7.90;99.90
2497;DHT22;1259;48.306;14.374;2022-11-15T01:07:14;7.80;99.90
2497;DHT22;1259;48.306;14.374;2022-11-15T01:09:40;7.90;99.90
2497;DHT22;1259;48.306;14.374;2022-11-15T01:12:07;7.90;99.90
2497;DHT22;1259;48.306;14.374;2022-11-15T01:14:36;7.70;99.90
2497;DHT22;1259;48.306;14.374;2022-11-15T01:17:02;7.60;99.90
2497;DHT22;1259;48.306;14.374;2022-11-15T01:19:29;7.70;99.90
2497;DHT22;1259;48.306;14.374;2022-11-15T01:21:56;7.80;99.90
2497;DHT22;1259;48.306;14.374;2022-11-15T01:24:23;7.90;99.90
2497;DHT22;1259;48.306;14.374;2022-11-15T01:26:50;7.90;99.90
2497;DHT22;1259;48.306;14.374;2022-11-15T01:29:17;7.90;99.90
2497;DHT22;1259;48.306;14.374;2022-11-15T01:31:45;7.80;99.90
2497;DHT22;1259;48.306;14.374;2022-11-15T01:34:12;7.80;99.90
2497;DHT22;1259;48.306;14.374;2022-11-15T01:36:40;7.80;99.90
2497;DHT22;1259;48.306;14.374;2022-11-15T01:39:08;7.80;99.90
2497;DHT22;1259;48.306;14.374;2022-11-15T01:41:34;7.60;99.90
2497;DHT22;1259;48.306;14.374;2022-11-15T01:44:31;7.60;99.90
2497;DHT22;1259;48.306;14.374;2022-11-15T01:47:01;7.60;99.90
2497;DHT22;1259;48.306;14.374;2022-11-15T01:49:31;7.60;99.90
2497;DHT22;1259;48.306;14.374;2022-11-15T01:52:00;7.70;99.90
2497;DHT22;1259;48.306;14.374;2022-11-15T01:54:28;7.70;99.90
2497;DHT22;1259;48.306;14.374;2022-11-15T01:57:00;7.70;99.90
2497;DHT22;1259;48.306;14.374;2022-11-15T01:59:28;7.70;99.90
2497;DHT22;1259;48.306;14.374;2022-11-15T02:01:55;7.70;99.90
2497;DHT22;1259;48.306;14.374;2022-11-15T02:04:26;7.60;99.90
2497;DHT22;1259;48.306;14.374;2022-11-15T02:06:54;7.60;99.90
2497;DHT22;1259;48.306;14.374;2022-11-15T02:09:21;7.70;99.90
2497;DHT22;1259;48.306;14.374;2022-11-15T02:11:49;7.70;99.90
2497;DHT22;1259;48.306;14.374;2022-11-15T02:14:19;7.80;99.90
2497;DHT22;1259;48.306;14.374;2022-11-15T02:16:54;7.80;99.90
2497;DHT22;1259;48.306;14.374;2022-11-15T02:19:47;7.80;99.90
2497;DHT22;1259;48.306;14.374;2022-11-15T02:22:30;7.70;99.90
2497;DHT22;1259;48.306;14.374;2022-11-15T02:25:14;7.70;99.90
2497;DHT22;1259;48.306;14.374;2022-11-15T02:28:10;7.70;99.90
2497;DHT22;1259;48.306;14.374;2022-11-15T02:30:46;7.60;99.90
2497;DHT22;1259;48.306;14.374;2022-11-15T02:33:26;7.60;99.90
2497;DHT22;1259;48.306;14.374;2022-11-15T02:35:59;7.60;99.90
2497;DHT22;1259;48.306;14.374;2022-11-15T02:38:31;7.60;99.90
2497;DHT22;1259;48.306;14.374;2022-11-15T02:41:03;7.50;99.90
2497;DHT22;1259;48.306;14.374;2022-11-15T02:43:37;7.30;99.90
2497;DHT22;1259;48.306;14.374;2022-11-15T02:46:31;7.20;99.90
2497;DHT22;1259;48.306;14.374;2022-11-15T02:49:16;7.30;99.90
2497;DHT22;1259;48.306;14.374;2022-11-15T02:51:46;7.40;99.90
2497;DHT22;1259;48.306;14.374;2022-11-15T02:54:18;7.30;99.90
2497;DHT22;1259;48.306;14.374;2022-11-15T02:56:46;7.40;99.90
2497;DHT22;1259;48.306;14.374;2022-11-15T02:59:37;7.40;99.90
2497;DHT22;1259;48.306;14.374;2022-11-15T03:02:21;7.50;99.90
2497;DHT22;1259;48.306;14.374;2022-11-15T03:04:53;7.50;99.90
2497;DHT22;1259;48.306;14.374;2022-11-15T03:07:26;7.30;99.90
2497;DHT22;1259;48.306;14.374;2022-11-15T03:10:01;7.10;99.90
2497;DHT22;1259;48.306;14.374;2022-11-15T03:12:36;6.90;99.90
2497;DHT22;1259;48.306;14.374;2022-11-15T03:15:08;6.80;99.90
2497;DHT22;1259;48.306;14.374;2022-11-15T03:17:41;6.80;99.90
2497;DHT22;1259;48.306;14.374;2022-11-15T03:20:10;6.90;99.90
2497;DHT22;1259;48.306;14.374;2022-11-15T03:22:41;7.00;99.90
2497;DHT22;1259;48.306;14.374;2022-11-15T03:25:13;7.00;99.90
2497;DHT22;1259;48.306;14.374;2022-11-15T03:27:46;6.80;99.90
2497;DHT22;1259;48.306;14.374;2022-11-15T03:30:15;6.70;99.90
2497;DHT22;1259;48.306;14.374;2022-11-15T03:32:45;6.70;99.90
2497;DHT22;1259;48.306;14.374;2022-11-15T03:35:15;6.60;99.90
2497;DHT22;1259;48.306;14.374;2022-11-15T03:37:48;6.50;99.90
2497;DHT22;1259;48.306;14.374;2022-11-15T03:40:17;6.50;99.90
2497;DHT22;1259;48.306;14.374;2022-11-15T03:42:50;6.40;99.90
2497;DHT22;1259;48.306;14.374;2022-11-15T03:45:23;6.30;99.90
2497;DHT22;1259;48.306;14.374;2022-11-15T03:47:59;6.30;99.90
2497;DHT22;1259;48.306;14.374;2022-11-15T03:50:28;6.20;99.90
2497;DHT22;1259;48.306;14.374;2022-11-15T03:52:56;6.30;99.90
2497;DHT22;1259;48.306;14.374;2022-11-15T03:55:24;6.40;99.90
2497;DHT22;1259;48.306;14.374;2022-11-15T03:57:56;6.70;99.90
2497;DHT22;1259;48.306;14.374;2022-11-15T04:00:24;6.70;99.90
2497;DHT22;1259;48.306;14.374;2022-11-15T04:02:51;6.80;99.90
2497;DHT22;1259;48.306;14.374;2022-11-15T04:05:19;6.80;99.90
2497;DHT22;1259;48.306;14.374;2022-11-15T04:07:46;6.80;99.90
2497;DHT22;1259;48.306;14.374;2022-11-15T04:10:13;6.90;99.90
2497;DHT22;1259;48.306;14.374;2022-11-15T04:12:42;6.80;99.90
2497;DHT22;1259;48.306;14.374;2022-11-15T04:15:13;6.70;99.90
2497;DHT22;1259;48.306;14.374;2022-11-15T04:17:42;6.70;99.90
2497;DHT22;1259;48.306;14.374;2022-11-15T04:20:12;6.80;99.90
2497;DHT22;1259;48.306;14.374;2022-11-15T04:22:59;6.90;99.90
2497;DHT22;1259;48.306;14.374;2022-11-15T04:25:44;7.00;99.90
2497;DHT22;1259;48.306;14.374;2022-11-15T04:28:11;7.00;99.90
2497;DHT22;1259;48.306;14.374;2022-11-15T04:30:39;7.00;99.90
2497;DHT22;1259;48.306;14.374;2022-11-15T04:33:06;7.00;99.90
2497;DHT22;1259;48.306;14.374;2022-11-15T04:35:33;7.10;99.90
2497;DHT22;1259;48.306;14.374;2022-11-15T04:38:02;7.10;99.90
2497;DHT22;1259;48.306;14.374;2022-11-15T04:40:28;7.10;99.90
2497;DHT22;1259;48.306;14.374;2022-11-15T04:42:55;7.20;99.90
2497;DHT22;1259;48.306;14.374;2022-11-15T04:45:23;7.20;99.90
2497;DHT22;1259;48.306;14.374;2022-11-15T04:47:49;7.20;99.90
2497;DHT22;1259;48.306;14.374;2022-11-15T04:50:16;7.30;99.90
2497;DHT22;1259;48.306;14.374;2022-11-15T04:52:50;7.30;99.90
2497;DHT22;1259;48.306;14.374;2022-11-15T04:55:19;7.30;99.90
2497;DHT22;1259;48.306;14.374;2022-11-15T04:57:46;7.20;99.90
2497;DHT22;1259;48.306;14.374;2022-11-15T05:00:15;7.10;99.90
2497;DHT22;1259;48.306;14.374;2022-11-15T05:02:42;7.20;99.90
2497;DHT22;1259;48.306;14.374;2022-11-15T05:05:23;7.10;99.90
2497;DHT22;1259;48.306;14.374;2022-11-15T05:07:51;7.10;99.90
2497;DHT22;1259;48.306;14.374;2022-11-15T05:10:19;7.10;99.90
2497;DHT22;1259;48.306;14.374;2022-11-15T05:12:46;7.10;99.90
2497;DHT22;1259;48.306;14.374;2022-11-15T05:15:13;7.00;99.90
2497;DHT22;1259;48.306;14.374;2022-11-15T05:17:40;7.00;99.90
2497;DHT22;1259;48.306;14.374;2022-11-15T05:20:08;7.00;99.90
2497;DHT22;1259;48.306;14.374;2022-11-15T05:22:35;7.10;99.90
2497;DHT22;1259;48.306;14.374;2022-11-15T05:25:03;7.10;99.90
2497;DHT22;1259;48.306;14.374;2022-11-15T05:27:32;7.10;99.90
2497;DHT22;1259;48.306;14.374;2022-11-15T05:29:58;7.00;99.90
2497;DHT22;1259;48.306;14.374;2022-11-15T05:32:26;6.90;99.90
2497;DHT22;1259;48.306;14.374;2022-11-15T05:34:53;6.90;99.90
2497;DHT22;1259;48.306;14.374;2022-11-15T05:37:20;7.00;99.90
2497;DHT22;1259;48.306;14.374;2022-11-15T05:39:47;6.90;99.90
2497;DHT22;1259;48.306;14.374;2022-11-15T05:42:15;6.90;99.90
2497;DHT22;1259;48.306;14.374;2022-11-15T05:44:47;6.90;99.90
2497;DHT22;1259;48.306;14.374;2022-11-15T05:47:17;6.90;99.90
2497;DHT22;1259;48.306;14.374;2022-11-15T05:49:48;6.90;99.90
2497;DHT22;1259;48.306;14.374;2022-11-15T05:52:18;6.90;99.90
2497;DHT22;1259;48.306;14.374;2022-11-15T05:54:47;6.80;99.90
2497;DHT22;1259;48.306;14.374;2022-11-15T05:57:14;6.80;99.90
2497;DHT22;1259;48.306;14.374;2022-11-15T05:59:41;6.80;99.90
2497;DHT22;1259;48.306;14.374;2022-11-15T06:02:10;6.70;99.90
2497;DHT22;1259;48.306;14.374;2022-11-15T06:04:37;6.70;99.90
2497;DHT22;1259;48.306;14.374;2022-11-15T06:07:04;6.70;99.90
2497;DHT22;1259;48.306;14.374;2022-11-15T06:09:31;6.70;99.90
2497;DHT22;1259;48.306;14.374;2022-11-15T06:11:58;6.70;99.90
2497;DHT22;1259;48.306;14.374;2022-11-15T06:14:25;6.70;99.90
2497;DHT22;1259;48.306;14.374;2022-11-15T06:16:52;6.80;99.90
2497;DHT22;1259;48.306;14.374;2022-11-15T06:19:20;6.90;99.90
2497;DHT22;1259;48.306;14.374;2022-11-15T06:21:47;6.90;99.90
2497;DHT22;1259;48.306;14.374;2022-11-15T06:24:13;6.90;99.90
2497;DHT22;1259;48.306;14.374;2022-11-15T06:26:40;6.90;99.90
2497;DHT22;1259;48.306;14.374;2022-11-15T06:29:07;6.90;99.90
2497;DHT22;1259;48.306;14.374;2022-11-15T06:31:35;6.80;99.90
2497;DHT22;1259;48.306;14.374;2022-11-15T06:34:02;6.70;99.90
2497;DHT22;1259;48.306;14.374;2022-11-15T06:36:30;6.70;99.90
2497;DHT22;1259;48.306;14.374;2022-11-15T06:38:57;6.80;99.90
2497;DHT22;1259;48.306;14.374;2022-11-15T06:41:24;6.70;99.90
2497;DHT22;1259;48.306;14.374;2022-11-15T06:43:51;6.60;99.90
2497;DHT22;1259;48.306;14.374;2022-11-15T06:46:18;6.70;99.90
2497;DHT22;1259;48.306;14.374;2022-11-15T06:48:45;6.70;99.90
2497;DHT22;1259;48.306;14.374;2022-11-15T06:51:11;6.60;99.90
2497;DHT22;1259;48.306;14.374;2022-11-15T06:53:40;6.60;99.90
2497;DHT22;1259;48.306;14.374;2022-11-15T06:56:07;6.30;99.90
2497;DHT22;1259;48.306;14.374;2022-11-15T06:58:35;6.20;99.90
2497;DHT22;1259;48.306;14.374;2022-11-15T07:01:04;6.10;99.90
2497;DHT22;1259;48.306;14.374;2022-11-15T07:03:31;6.00;99.90
2497;DHT22;1259;48.306;14.374;2022-11-15T07:05:58;6.10;99.90
2497;DHT22;1259;48.306;14.374;2022-11-15T07:08:27;6.30;99.90
2497;DHT22;1259;48.306;14.374;2022-11-15T07:10:57;6.40;99.90
2497;DHT22;1259;48.306;14.374;2022-11-15T07:13:25;6.60;99.90
2497;DHT22;1259;48.306;14.374;2022-11-15T07:15:52;6.50;99.90
2497;DHT22;1259;48.306;14.374;2022-11-15T07:18:19;6.30;99.90
2497;DHT22;1259;48.306;14.374;2022-11-15T07:20:46;6.30;99.90
2497;DHT22;1259;48.306;14.374;2022-11-15T07:23:13;6.50;99.90
2497;DHT22;1259;48.306;14.374;2022-11-15T07:25:40;6.60;99.90
2497;DHT22;1259;48.306;14.374;2022-11-15T07:28:08;6.30;99.90
2497;DHT22;1259;48.306;14.374;2022-11-15T07:30:35;6.30;99.90
2497;DHT22;1259;48.306;14.374;2022-11-15T07:33:02;6.30;99.90
2497;DHT22;1259;48.306;14.374;2022-11-15T07:35:30;6.20;99.90
2497;DHT22;1259;48.306;14.374;2022-11-15T07:37:58;6.20;99.90
2497;DHT22;1259;48.306;14.374;2022-11-15T07:40:26;6.00;99.90
2497;DHT22;1259;48.306;14.374;2022-11-15T07:42:59;6.00;99.90
2497;DHT22;1259;48.306;14.374;2022-11-15T07:45:27;6.00;99.90
2497;DHT22;1259;48.306;14.374;2022-11-15T07:47:54;6.00;99.90
2497;DHT22;1259;48.306;14.374;2022-11-15T07:50:22;6.00;99.90
2497;DHT22;1259;48.306;14.374;2022-11-15T07:52:53;5.90;99.90
2497;DHT22;1259;48.306;14.374;2022-11-15T07:55:20;5.90;99.90
2497;DHT22;1259;48.306;14.374;2022-11-15T07:57:47;5.90;99.90
2497;DHT22;1259;48.306;14.374;2022-11-15T08:00:15;5.90;99.90
2497;DHT22;1259;48.306;14.374;2022-11-15T08:02:44;6.00;99.90
2497;DHT22;1259;48.306;14.374;2022-11-15T08:05:10;6.20;99.90
2497;DHT22;1259;48.306;14.374;2022-11-15T08:07:37;6.00;99.90
2497;DHT22;1259;48.306;14.374;2022-11-15T08:10:06;6.00;99.90
2497;DHT22;1259;48.306;14.374;2022-11-15T08:12:34;6.20;99.90
2497;DHT22;1259;48.306;14.374;2022-11-15T08:15:00;6.40;99.90
2497;DHT22;1259;48.306;14.374;2022-11-15T08:17:28;6.20;99.90
2497;DHT22;1259;48.306;14.374;2022-11-15T08:19:59;5.80;99.90
2497;DHT22;1259;48.306;14.374;2022-11-15T08:22:26;5.80;99.90
2497;DHT22;1259;48.306;14.374;2022-11-15T08:24:53;6.00;99.90
2497;DHT22;1259;48.306;14.374;2022-11-15T08:27:20;5.80;99.90
2497;DHT22;1259;48.306;14.374;2022-11-15T08:29:48;5.70;99.90
2497;DHT22;1259;48.306;14.374;2022-11-15T08:32:15;5.50;99.90
2497;DHT22;1259;48.306;14.374;2022-11-15T08:34:43;5.50;99.90
2497;DHT22;1259;48.306;14.374;2022-11-15T08:37:11;5.70;99.90
2497;DHT22;1259;48.306;14.374;2022-11-15T08:39:38;5.80;99.90
2497;DHT22;1259;48.306;14.374;2022-11-15T08:42:05;5.80;99.90
2497;DHT22;1259;48.306;14.374;2022-11-15T08:44:32;6.00;99.90
2497;DHT22;1259;48.306;14.374;2022-11-15T08:46:59;6.10;99.90
2497;DHT22;1259;48.306;14.374;2022-11-15T08:49:26;6.10;99.90
2497;DHT22;1259;48.306;14.374;2022-11-15T08:51:53;6.20;99.90
2497;DHT22;1259;48.306;14.374;2022-11-15T08:54:21;6.60;99.90
2497;DHT22;1259;48.306;14.374;2022-11-15T08:56:48;6.40;99.90
2497;DHT22;1259;48.306;14.374;2022-11-15T08:59:15;6.50;99.90
2497;DHT22;1259;48.306;14.374;2022-11-15T09:01:41;6.60;99.90
2497;DHT22;1259;48.306;14.374;2022-11-15T09:04:08;6.80;99.90
2497;DHT22;1259;48.306;14.374;2022-11-15T09:06:35;6.90;99.90
2497;DHT22;1259;48.306;14.374;2022-11-15T09:09:03;6.90;99.90
2497;DHT22;1259;48.306;14.374;2022-11-15T09:11:31;7.00;99.90
2497;DHT22;1259;48.306;14.374;2022-11-15T09:13:58;6.90;99.90
2497;DHT22;1259;48.306;14.374;2022-11-15T09:16:25;6.90;99.90
2497;DHT22;1259;48.306;14.374;2022-11-15T09:18:52;6.70;99.90
2497;DHT22;1259;48.306;14.374;2022-11-15T09:21:19;6.80;99.90
2497;DHT22;1259;48.306;14.374;2022-11-15T09:23:46;6.90;99.90
2497;DHT22;1259;48.306;14.374;2022-11-15T09:26:13;7.10;99.90
2497;DHT22;1259;48.306;14.374;2022-11-15T09:28:41;7.20;99.90
2497;DHT22;1259;48.306;14.374;2022-11-15T09:31:09;7.20;99.90
2497;DHT22;1259;48.306;14.374;2022-11-15T09:33:36;7.20;99.90
2497;DHT22;1259;48.306;14.374;2022-11-15T09:36:05;7.00;99.90
2497;DHT22;1259;48.306;14.374;2022-11-15T09:38:32;7.10;99.90
2497;DHT22;1259;48.306;14.374;2022-11-15T09:41:18;6.80;99.90
2497;DHT22;1259;48.306;14.374;2022-11-15T09:43:54;6.80;99.90
2497;DHT22;1259;48.306;14.374;2022-11-15T09:46:34;6.80;99.90
2497;DHT22;1259;48.306;14.374;2022-11-15T09:49:03;6.90;99.90
2497;DHT22;1259;48.306;14.374;2022-11-15T09:51:33;6.90;99.90
2497;DHT22;1259;48.306;14.374;2022-11-15T09:54:11;6.90;99.90
2497;DHT22;1259;48.306;14.374;2022-11-15T09:56:42;7.10;99.90
2497;DHT22;1259;48.306;14.374;2022-11-15T09:59:38;7.00;99.90
2497;DHT22;1259;48.306;14.374;2022-11-15T10:02:18;6.80;99.90
2497;DHT22;1259;48.306;14.374;2022-11-15T10:04:47;6.90;99.90
2497;DHT22;1259;48.306;14.374;2022-11-15T10:07:16;6.60;99.90
2497;DHT22;1259;48.306;14.374;2022-11-15T10:09:52;6.90;99.90
2497;DHT22;1259;48.306;14.374;2022-11-15T10:12:20;7.00;99.90
2497;DHT22;1259;48.306;14.374;2022-11-15T10:14:54;7.10;99.90
2497;DHT22;1259;48.306;14.374;2022-11-15T10:17:49;7.10;99.90
2497;DHT22;1259;48.306;14.374;2022-11-15T10:20:23;7.10;99.90
2497;DHT22;1259;48.306;14.374;2022-11-15T10:22:54;7.00;99.90
2497;DHT22;1259;48.306;14.374;2022-11-15T10:25:24;7.00;99.90
2497;DHT22;1259;48.306;14.374;2022-11-15T10:27:56;7.20;99.90
2497;DHT22;1259;48.306;14.374;2022-11-15T10:30:36;7.20;99.90
2497;DHT22;1259;48.306;14.374;2022-11-15T10:33:20;7.20;99.90
2497;DHT22;1259;48.306;14.374;2022-11-15T10:36:17;7.10;99.90
2497;DHT22;1259;48.306;14.374;2022-11-15T10:38:53;7.00;99.90
2497;DHT22;1259;48.306;14.374;2022-11-15T10:41:21;7.00;99.90
2497;DHT22;1259;48.306;14.374;2022-11-15T10:44:11;7.10;99.90
2497;DHT22;1259;48.306;14.374;2022-11-15T10:46:41;7.00;99.90
2497;DHT22;1259;48.306;14.374;2022-11-15T10:49:14;6.90;99.90
2497;DHT22;1259;48.306;14.374;2022-11-15T10:51:45;6.80;99.90
2497;DHT22;1259;48.306;14.374;2022-11-15T10:54:14;6.70;99.90
2497;DHT22;1259;48.306;14.374;2022-11-15T10:56:42;6.80;99.90
2497;DHT22;1259;48.306;14.374;2022-11-15T10:59:16;6.80;99.90
2497;DHT22;1259;48.306;14.374;2022-11-15T11:01:47;6.80;99.90
2497;DHT22;1259;48.306;14.374;2022-11-15T11:04:14;6.60;99.90
2497;DHT22;1259;48.306;14.374;2022-11-15T11:06:49;6.70;99.90
2497;DHT22;1259;48.306;14.374;2022-11-15T11:09:27;6.80;99.90
2497;DHT22;1259;48.306;14.374;2022-11-15T11:11:55;6.90;99.90
2497;DHT22;1259;48.306;14.374;2022-11-15T11:14:24;6.50;99.90
2497;DHT22;1259;48.306;14.374;2022-11-15T11:16:57;6.60;99.90
2497;DHT22;1259;48.306;14.374;2022-11-15T11:19:41;6.40;99.90
2497;DHT22;1259;48.306;14.374;2022-11-15T11:22:17;6.30;99.90
2497;DHT22;1259;48.306;14.374;2022-11-15T11:24:54;6.20;99.90
2497;DHT22;1259;48.306;14.374;2022-11-15T11:27:33;6.30;99.90
2497;DHT22;1259;48.306;14.374;2022-11-15T11:30:08;6.30;99.90
2497;DHT22;1259;48.306;14.374;2022-11-15T11:33:15;6.50;99.90
2497;DHT22;1259;48.306;14.374;2022-11-15T11:35:50;6.40;99.90
2497;DHT22;1259;48.306;14.374;2022-11-15T11:38:39;6.70;99.90
2497;DHT22;1259;48.306;14.374;2022-11-15T11:41:18;6.80;99.90
2497;DHT22;1259;48.306;14.374;2022-11-15T11:43:53;6.90;99.90
2497;DHT22;1259;48.306;14.374;2022-11-15T11:46:45;7.00;99.90
2497;DHT22;1259;48.306;14.374;2022-11-15T11:49:20;6.90;99.90
2497;DHT22;1259;48.306;14.374;2022-11-15T11:51:52;6.80;99.90
2497;DHT22;1259;48.306;14.374;2022-11-15T11:54:24;6.80;99.90
2497;DHT22;1259;48.306;14.374;2022-11-15T11:56:53;6.90;99.90
2497;DHT22;1259;48.306;14.374;2022-11-15T11:59:31;7.00;99.90
2497;DHT22;1259;48.306;14.374;2022-11-15T12:02:11;7.00;99.90
2497;DHT22;1259;48.306;14.374;2022-11-15T12:04:43;7.20;99.90
2497;DHT22;1259;48.306;14.374;2022-11-15T12:07:15;7.30;99.90
2497;DHT22;1259;48.306;14.374;2022-11-15T12:09:51;7.10;99.90
2497;DHT22;1259;48.306;14.374;2022-11-15T12:12:25;7.20;99.90
2497;DHT22;1259;48.306;14.374;2022-11-15T12:14:56;7.30;99.90
2497;DHT22;1259;48.306;14.374;2022-11-15T12:17:27;7.20;99.90
2497;DHT22;1259;48.306;14.374;2022-11-15T12:19:59;7.10;99.90
2497;DHT22;1259;48.306;14.374;2022-11-15T12:22:36;7.20;99.90
2497;DHT22;1259;48.306;14.374;2022-11-15T12:25:14;7.20;99.90
2497;DHT22;1259;48.306;14.374;2022-11-15T12:27:46;7.40;99.90
2497;DHT22;1259;48.306;14.374;2022-11-15T12:30:17;7.30;99.90
2497;DHT22;1259;48.306;14.374;2022-11-15T12:32:51;7.30;99.90
2497;DHT22;1259;48.306;14.374;2022-11-15T12:35:35;7.40;99.90
2497;DHT22;1259;48.306;14.374;2022-11-15T12:38:02;7.10;99.90
2497;DHT22;1259;48.306;14.374;2022-11-15T12:40:32;7.20;99.90
2497;DHT22;1259;48.306;14.374;2022-11-15T12:43:35;7.40;99.90
2497;DHT22;1259;48.306;14.374;2022-11-15T12:46:05;7.20;99.90
2497;DHT22;1259;48.306;14.374;2022-11-15T12:48:57;7.00;99.90
2497;DHT22;1259;48.306;14.374;2022-11-15T12:54:58;7.20;99.90
2497;DHT22;1259;48.306;14.374;2022-11-15T12:57:48;7.10;99.90
2497;DHT22;1259;48.306;14.374;2022-11-15T13:00:43;6.80;99.90
2497;DHT22;1259;48.306;14.374;2022-11-15T13:03:26;7.10;99.90
2497;DHT22;1259;48.306;14.374;2022-11-15T13:06:09;7.10;99.90
2497;DHT22;1259;48.306;14.374;2022-11-15T13:08:49;7.20;99.90
2497;DHT22;1259;48.306;14.374;2022-11-15T13:11:49;7.10;99.90
2497;DHT22;1259;48.306;14.374;2022-11-15T13:14:43;7.30;99.90
2497;DHT22;1259;48.306;14.374;2022-11-15T13:17:26;7.10;99.90
2497;DHT22;1259;48.306;14.374;2022-11-15T13:19:59;7.20;99.90
2497;DHT22;1259;48.306;14.374;2022-11-15T13:22:26;7.10;99.90
2497;DHT22;1259;48.306;14.374;2022-11-15T13:25:27;6.90;99.90
2497;DHT22;1259;48.306;14.374;2022-11-15T13:27:58;6.80;99.90
2497;DHT22;1259;48.306;14.374;2022-11-15T13:30:26;6.80;99.90
2497;DHT22;1259;48.306;14.374;2022-11-15T13:32:54;7.10;99.90
2497;DHT22;1259;48.306;14.374;2022-11-15T13:35:23;7.20;99.90
2497;DHT22;1259;48.306;14.374;2022-11-15T13:37:52;7.20;99.90
2497;DHT22;1259;48.306;14.374;2022-11-15T13:40:23;7.10;99.90
2497;DHT22;1259;48.306;14.374;2022-11-15T13:42:50;7.10;99.90
2497;DHT22;1259;48.306;14.374;2022-11-15T13:45:21;7.00;99.90
2497;DHT22;1259;48.306;14.374;2022-11-15T13:47:53;7.10;99.90
2497;DHT22;1259;48.306;14.374;2022-11-15T13:50:22;7.20;99.90
2497;DHT22;1259;48.306;14.374;2022-11-15T13:52:50;7.00;99.90
2497;DHT22;1259;48.306;14.374;2022-11-15T13:55:20;7.10;99.90
2497;DHT22;1259;48.306;14.374;2022-11-15T13:57:49;6.90;99.90
2497;DHT22;1259;48.306;14.374;2022-11-15T14:00:34;6.80;99.90
2497;DHT22;1259;48.306;14.374;2022-11-15T14:03:07;7.00;99.90
2497;DHT22;1259;48.306;14.374;2022-11-15T14:05:35;7.20;99.90
2497;DHT22;1259;48.306;14.374;2022-11-15T14:08:13;7.30;99.90
2497;DHT22;1259;48.306;14.374;2022-11-15T14:10:48;7.10;99.90
2497;DHT22;1259;48.306;14.374;2022-11-15T14:13:29;7.20;99.90
2497;DHT22;1259;48.306;14.374;2022-11-15T14:16:17;7.20;99.90
2497;DHT22;1259;48.306;14.374;2022-11-15T14:18:46;7.20;99.90
2497;DHT22;1259;48.306;14.374;2022-11-15T14:21:14;7.00;99.90
2497;DHT22;1259;48.306;14.374;2022-11-15T14:23:41;7.10;99.90
2497;DHT22;1259;48.306;14.374;2022-11-15T14:26:26;7.10;99.90
2497;DHT22;1259;48.306;14.374;2022-11-15T14:28:53;7.20;99.90
2497;DHT22;1259;48.306;14.374;2022-11-15T14:31:21;7.20;99.90
2497;DHT22;1259;48.306;14.374;2022-11-15T14:33:48;7.20;99.90
2497;DHT22;1259;48.306;14.374;2022-11-15T14:36:17;7.10;99.90
2497;DHT22;1259;48.306;14.374;2022-11-15T14:38:45;7.10;99.90
2497;DHT22;1259;48.306;14.374;2022-11-15T14:41:19;7.00;99.90
2497;DHT22;1259;48.306;14.374;2022-11-15T14:43:46;7.10;99.90
2497;DHT22;1259;48.306;14.374;2022-11-15T14:46:13;7.10;99.90
2497;DHT22;1259;48.306;14.374;2022-11-15T14:48:42;7.00;99.90
2497;DHT22;1259;48.306;14.374;2022-11-15T14:51:12;6.80;99.90
2497;DHT22;1259;48.306;14.374;2022-11-15T14:53:40;6.60;99.90
2497;DHT22;1259;48.306;14.374;2022-11-15T14:56:07;6.60;99.90
2497;DHT22;1259;48.306;14.374;2022-11-15T14:58:34;6.80;99.90
2497;DHT22;1259;48.306;14.374;2022-11-15T15:01:02;6.80;99.90
2497;DHT22;1259;48.306;14.374;2022-11-15T15:03:32;6.50;99.90
2497;DHT22;1259;48.306;14.374;2022-11-15T15:06:00;6.50;99.90
2497;DHT22;1259;48.306;14.374;2022-11-15T15:08:27;6.70;99.90
2497;DHT22;1259;48.306;14.374;2022-11-15T15:10:54;6.70;99.90
2497;DHT22;1259;48.306;14.374;2022-11-15T15:13:22;6.80;99.90
2497;DHT22;1259;48.306;14.374;2022-11-15T15:15:50;6.90;99.90
2497;DHT22;1259;48.306;14.374;2022-11-15T15:18:18;6.80;99.90
2497;DHT22;1259;48.306;14.374;2022-11-15T15:20:56;6.70;99.90
2497;DHT22;1259;48.306;14.374;2022-11-15T15:23:26;6.60;99.90
2497;DHT22;1259;48.306;14.374;2022-11-15T15:25:56;6.60;99.90
2497;DHT22;1259;48.306;14.374;2022-11-15T15:28:23;6.50;99.90
2497;DHT22;1259;48.306;14.374;2022-11-15T15:30:50;6.60;99.90
2497;DHT22;1259;48.306;14.374;2022-11-15T15:33:18;6.60;99.90
2497;DHT22;1259;48.306;14.374;2022-11-15T15:35:45;6.60;99.90
2497;DHT22;1259;48.306;14.374;2022-11-15T15:38:12;6.70;99.90
2497;DHT22;1259;48.306;14.374;2022-11-15T15:40:42;6.80;99.90
2497;DHT22;1259;48.306;14.374;2022-11-15T15:43:09;6.70;99.90
2497;DHT22;1259;48.306;14.374;2022-11-15T15:45:37;6.60;99.90
2497;DHT22;1259;48.306;14.374;2022-11-15T15:48:04;6.70;99.90
2497;DHT22;1259;48.306;14.374;2022-11-15T15:50:35;6.80;99.90
2497;DHT22;1259;48.306;14.374;2022-11-15T15:53:03;6.70;99.90
2497;DHT22;1259;48.306;14.374;2022-11-15T15:55:31;6.80;99.90
2497;DHT22;1259;48.306;14.374;2022-11-15T15:57:59;6.70;99.90
2497;DHT22;1259;48.306;14.374;2022-11-15T16:00:26;6.60;99.90
2497;DHT22;1259;48.306;14.374;2022-11-15T16:02:53;6.50;99.90
2497;DHT22;1259;48.306;14.374;2022-11-15T16:05:20;6.50;99.90
2497;DHT22;1259;48.306;14.374;2022-11-15T16:07:47;6.60;99.90
2497;DHT22;1259;48.306;14.374;2022-11-15T16:10:19;6.60;99.90
2497;DHT22;1259;48.306;14.374;2022-11-15T16:12:48;6.60;99.90
2497;DHT22;1259;48.306;14.374;2022-11-15T16:15:17;6.50;99.90
2497;DHT22;1259;48.306;14.374;2022-11-15T16:17:47;6.50;99.90
2497;DHT22;1259;48.306;14.374;2022-11-15T16:20:33;6.50;99.90
2497;DHT22;1259;48.306;14.374;2022-11-15T16:23:01;6.60;99.90
2497;DHT22;1259;48.306;14.374;2022-11-15T16:25:28;6.70;99.90
2497;DHT22;1259;48.306;14.374;2022-11-15T16:27:57;6.70;99.90
2497;DHT22;1259;48.306;14.374;2022-11-15T16:30:25;6.60;99.90